sensor_id;sensor_type;location;lat;lon;timestamp;P1;P2;P0
45112;PMS5003;30873;53.908;27.576;2022-12-20T00:04:30;33.1;26.7;15.3
45112;PMS5003;30873;53.908;27.576;2022-12-20T00:09:38;33.6;27.2;15.1
45112;PMS5003;30873;53.908;27.576;2022-12-20T00:14:56;29.3;23.3;13.5
45112;PMS5003;30873;53.908;27.576;2022-12-20T00:19:24;34.6;28.9;15.7
45112;PMS5003;30873;53.908;27.576;2022-12-20T00:24:22;32.8;27.8;15.6
45112;PMS5003;30873;53.908;27.576;2022-12-20T00:30:07;31.5;25;14.2
45112;PMS5003;30873;53.908;27.576;2022-12-20T00:34:56;31.3;25.8;14.4
45112;PMS5003;30873;53.908;27.576;2022-12-20T00:39:48;32;26.4;15
45112;PMS5003;30873;53.908;27.576;2022-12-20T00:45:06;30.9;26.3;15.5
45112;PMS5003;30873;53.908;27.576;2022-12-20T00:49:38;32.5;26.3;14.7
45112;PMS5003;30873;53.908;27.576;2022-12-20T00:54:54;31.8;26.4;14.8
45112;PMS5003;30873;53.908;27.576;2022-12-20T00:59:40;31.2;24.9;14.6
45112;PMS5003;30873;53.908;27.576;2022-12-20T01:05:04;30.2;24.9;14.6
45112;PMS5003;30873;53.908;27.576;2022-12-20T01:10:02;29.4;23.8;13.5
45112;PMS5003;30873;53.908;27.576;2022-12-20T01:14:52;32.7;27.1;15.7
45112;PMS5003;30873;53.908;27.576;2022-12-20T01:20:06;31.7;27.2;15.8
45112;PMS5003;30873;53.908;27.576;2022-12-20T01:24:56;32.8;26.9;15.1
45112;PMS5003;30873;53.908;27.576;2022-12-20T01:30:06;32;26.7;15.2
45112;PMS5003;30873;53.908;27.576;2022-12-20T01:35:08;30.6;23.9;13.6
45112;PMS5003;30873;53.908;27.576;2022-12-20T01:39:32;30;23.5;11.8
45112;PMS5003;30873;53.908;27.576;2022-12-20T01:45:12;27.8;21.9;12.8
45112;PMS5003;30873;53.908;27.576;2022-12-20T01:49:33;27.8;21.9;12.8
45112;PMS5003;30873;53.908;27.576;2022-12-20T01:55:09;30.2;25.2;13.2
45112;PMS5003;30873;53.908;27.576;2022-12-20T02:00:08;29.6;24;13.2
45112;PMS5003;30873;53.908;27.576;2022-12-20T02:04:44;33.3;27.2;14.7
45112;PMS5003;30873;53.908;27.576;2022-12-20T02:09:58;30;25.2;14.9
45112;PMS5003;30873;53.908;27.576;2022-12-20T02:15:02;29.1;23.8;13.3
45112;PMS5003;30873;53.908;27.576;2022-12-20T02:20:23;31.2;25.8;14.6
45112;PMS5003;30873;53.908;27.576;2022-12-20T02:25:13;28.9;24.2;13.1
45112;PMS5003;30873;53.908;27.576;2022-12-20T02:30:15;28.9;24.2;13.1
45112;PMS5003;30873;53.908;27.576;2022-12-20T02:34:36;29.7;23.6;13.1
45112;PMS5003;30873;53.908;27.576;2022-12-20T02:39:58;27.9;23.9;14.1
45112;PMS5003;30873;53.908;27.576;2022-12-20T02:45:10;29.1;22.5;13
45112;PMS5003;30873;53.908;27.576;2022-12-20T02:50:10;28.1;22.4;12.9
45112;PMS5003;30873;53.908;27.576;2022-12-20T02:54:22;28.1;22.4;12.9
45112;PMS5003;30873;53.908;27.576;2022-12-20T03:00:02;29.1;23.4;13.5
45112;PMS5003;30873;53.908;27.576;2022-12-20T03:04:46;31.4;26.6;14.8
45112;PMS5003;30873;53.908;27.576;2022-12-20T03:10:08;29.8;23.8;13.5
45112;PMS5003;30873;53.908;27.576;2022-12-20T03:15:10;25.9;20.9;12.1
45112;PMS5003;30873;53.908;27.576;2022-12-20T03:19:42;25.9;20.9;12.1
45112;PMS5003;30873;53.908;27.576;2022-12-20T03:24:34;27.1;21.4;12.1
45112;PMS5003;30873;53.908;27.576;2022-12-20T03:29:32;26.7;21;12.4
45112;PMS5003;30873;53.908;27.576;2022-12-20T03:35:10;29.6;23.6;13.4
45112;PMS5003;30873;53.908;27.576;2022-12-20T03:40:10;26.1;22.8;13.1
45112;PMS5003;30873;53.908;27.576;2022-12-20T03:44:22;26.1;22.8;13.1
45112;PMS5003;30873;53.908;27.576;2022-12-20T03:49:58;27.2;23.6;13.5
45112;PMS5003;30873;53.908;27.576;2022-12-20T03:55:08;31.6;25.8;14.7
45112;PMS5003;30873;53.908;27.576;2022-12-20T04:00:10;28.5;23.6;13.6
45112;PMS5003;30873;53.908;27.576;2022-12-20T04:05:08;28.5;23.6;13.6
45112;PMS5003;30873;53.908;27.576;2022-12-20T04:09:42;29.6;24.6;13.5
45112;PMS5003;30873;53.908;27.576;2022-12-20T04:14:22;31.8;26.6;14
45112;PMS5003;30873;53.908;27.576;2022-12-20T04:19:32;33.1;26.1;15.1
45112;PMS5003;30873;53.908;27.576;2022-12-20T04:24:58;31.7;25;14.3
45112;PMS5003;30873;53.908;27.576;2022-12-20T04:30:08;34.7;28.2;15.4
45112;PMS5003;30873;53.908;27.576;2022-12-20T04:34:42;33.2;27.5;16.2
45112;PMS5003;30873;53.908;27.576;2022-12-20T04:40:00;31.8;26.9;15.3
45112;PMS5003;30873;53.908;27.576;2022-12-20T04:45:00;34.8;28.1;16
45112;PMS5003;30873;53.908;27.576;2022-12-20T04:50:08;30.8;27;15.8
45112;PMS5003;30873;53.908;27.576;2022-12-20T04:54:32;36.7;30.7;18
45112;PMS5003;30873;53.908;27.576;2022-12-20T04:59:44;34.9;28.2;16.7
45112;PMS5003;30873;53.908;27.576;2022-12-20T05:04:48;27.4;24.2;14.9
45112;PMS5003;30873;53.908;27.576;2022-12-20T05:09:34;29.2;23.2;13.2
45112;PMS5003;30873;53.908;27.576;2022-12-20T05:15:08;31.3;26.8;15.2
45112;PMS5003;30873;53.908;27.576;2022-12-20T05:19:42;34.8;27.7;15.4
45112;PMS5003;30873;53.908;27.576;2022-12-20T05:24:32;35.1;28.3;16.1
45112;PMS5003;30873;53.908;27.576;2022-12-20T05:29:58;31.5;24.6;15.3
45112;PMS5003;30873;53.908;27.576;2022-12-20T05:34:58;32.7;26.4;15.2
45112;PMS5003;30873;53.908;27.576;2022-12-20T05:40:08;31.1;26.2;14.7
45112;PMS5003;30873;53.908;27.576;2022-12-20T05:44:32;31.2;25.5;15.1
45112;PMS5003;30873;53.908;27.576;2022-12-20T05:49:44;37.2;30.8;18.2
45112;PMS5003;30873;53.908;27.576;2022-12-20T05:54:44;33.3;29;17.6
45112;PMS5003;30873;53.908;27.576;2022-12-20T05:59:30;35.3;27.7;16.3
45112;PMS5003;30873;53.908;27.576;2022-12-20T06:05:10;34.4;29.7;17.4
45112;PMS5003;30873;53.908;27.576;2022-12-20T06:09:42;34.4;29.7;17.4
45112;PMS5003;30873;53.908;27.576;2022-12-20T06:14:54;39;30.9;18.5
45112;PMS5003;30873;53.908;27.576;2022-12-20T06:19:58;40.1;31.2;19.7
45112;PMS5003;30873;53.908;27.576;2022-12-20T06:24:58;42.1;33.1;20.5
45112;PMS5003;30873;53.908;27.576;2022-12-20T06:30:08;38.5;31.3;19.3
45112;PMS5003;30873;53.908;27.576;2022-12-20T06:34:54;38.5;30.9;18.9
45112;PMS5003;30873;53.908;27.576;2022-12-20T06:39:32;36.3;28;16.9
45112;PMS5003;30873;53.908;27.576;2022-12-20T06:44:48;38.1;30.8;16.7
45112;PMS5003;30873;53.908;27.576;2022-12-20T06:49:22;35.3;27.8;15.8
45112;PMS5003;30873;53.908;27.576;2022-12-20T06:55:08;37.6;30.5;16.7
45112;PMS5003;30873;53.908;27.576;2022-12-20T06:59:32;35.2;28;16.6
45112;PMS5003;30873;53.908;27.576;2022-12-20T07:04:32;34;27.2;16.1
45112;PMS5003;30873;53.908;27.576;2022-12-20T07:09:58;35.4;30;16.8
45112;PMS5003;30873;53.908;27.576;2022-12-20T07:15:00;36.2;27.3;16.4
45112;PMS5003;30873;53.908;27.576;2022-12-20T07:20:08;36.6;30;17.4
45112;PMS5003;30873;53.908;27.576;2022-12-20T07:24:22;35.4;29.8;16.9
45112;PMS5003;30873;53.908;27.576;2022-12-20T07:29:42;35.2;28.2;16.2
45112;PMS5003;30873;53.908;27.576;2022-12-20T07:34:48;38.3;31.4;17.6
45112;PMS5003;30873;53.908;27.576;2022-12-20T07:39:34;35.1;27.7;17.5
45112;PMS5003;30873;53.908;27.576;2022-12-20T07:45:10;38.6;31.8;18.4
45112;PMS5003;30873;53.908;27.576;2022-12-20T07:49:56;38.6;31.8;18.4
45112;PMS5003;30873;53.908;27.576;2022-12-20T07:54:32;37.8;31.4;18.7
45112;PMS5003;30873;53.908;27.576;2022-12-20T08:00:00;40.4;33.4;20.2
45112;PMS5003;30873;53.908;27.576;2022-12-20T08:05:01;39;30.6;18.9
45112;PMS5003;30873;53.908;27.576;2022-12-20T08:10:04;40.1;34.2;20.9
45112;PMS5003;30873;53.908;27.576;2022-12-20T08:14:22;39.7;32.6;20.3
45112;PMS5003;30873;53.908;27.576;2022-12-20T08:19:56;43.8;36.3;22.2
45112;PMS5003;30873;53.908;27.576;2022-12-20T08:25:10;43.3;34.7;21
45112;PMS5003;30873;53.908;27.576;2022-12-20T08:29:32;43.3;34.7;21
45112;PMS5003;30873;53.908;27.576;2022-12-20T08:34:22;40.8;33.6;20.8
45112;PMS5003;30873;53.908;27.576;2022-12-20T08:39:56;40.7;33.7;21.3
45112;PMS5003;30873;53.908;27.576;2022-12-20T08:45:06;42.9;36.1;22.1
45112;PMS5003;30873;53.908;27.576;2022-12-20T08:49:54;42.2;35.6;21.5
45112;PMS5003;30873;53.908;27.576;2022-12-20T08:54:54;40.9;33.1;21.1
45112;PMS5003;30873;53.908;27.576;2022-12-20T08:59:58;40.8;32.7;21
45112;PMS5003;30873;53.908;27.576;2022-12-20T09:04:32;44.8;36.4;22.2
45112;PMS5003;30873;53.908;27.576;2022-12-20T09:10:08;55.3;47.2;34
45112;PMS5003;30873;53.908;27.576;2022-12-20T09:15:08;54.3;45.1;30.5
45112;PMS5003;30873;53.908;27.576;2022-12-20T09:19:32;53.3;42.3;28.2
45112;PMS5003;30873;53.908;27.576;2022-12-20T09:24:40;48.6;40.1;25.7
45112;PMS5003;30873;53.908;27.576;2022-12-20T09:30:00;46.4;39.2;25.3
45112;PMS5003;30873;53.908;27.576;2022-12-20T09:35:08;50.7;41.4;27.4
45112;PMS5003;30873;53.908;27.576;2022-12-20T09:40:08;41.8;35.2;20.6
45112;PMS5003;30873;53.908;27.576;2022-12-20T09:44:44;41.7;34.7;22.1
45112;PMS5003;30873;53.908;27.576;2022-12-20T09:49:58;43.1;35.6;23.1
45112;PMS5003;30873;53.908;27.576;2022-12-20T09:54:37;36.2;31;18.2
45112;PMS5003;30873;53.908;27.576;2022-12-20T10:00:10;41.1;33.7;20.9
45112;PMS5003;30873;53.908;27.576;2022-12-20T10:05:10;41.1;33.7;20.9
45112;PMS5003;30873;53.908;27.576;2022-12-20T10:09:39;39.5;32.3;19.8
45112;PMS5003;30873;53.908;27.576;2022-12-20T10:14:48;37.6;31.1;19.6
45112;PMS5003;30873;53.908;27.576;2022-12-20T10:19:50;38.6;32.5;19.9
45112;PMS5003;30873;53.908;27.576;2022-12-20T10:25:12;39.5;32.7;20.9
45112;PMS5003;30873;53.908;27.576;2022-12-20T10:30:12;36;30.5;18.7
45112;PMS5003;30873;53.908;27.576;2022-12-20T10:34:55;36;30.5;18.7
45112;PMS5003;30873;53.908;27.576;2022-12-20T10:39:56;37.7;30;19.2
45112;PMS5003;30873;53.908;27.576;2022-12-20T10:44:22;35.8;30.2;18.5
45112;PMS5003;30873;53.908;27.576;2022-12-20T10:50:11;36.3;31;18.6
45112;PMS5003;30873;53.908;27.576;2022-12-20T10:55:30;36.6;30.3;19
45112;PMS5003;30873;53.908;27.576;2022-12-20T10:59:43;39;31.8;20.2
45112;PMS5003;30873;53.908;27.576;2022-12-20T11:04:42;40;32.7;20.2
45112;PMS5003;30873;53.908;27.576;2022-12-20T11:09:41;41.1;32.8;19.8
45112;PMS5003;30873;53.908;27.576;2022-12-20T11:15:07;38.2;32;19.6
45112;PMS5003;30873;53.908;27.576;2022-12-20T11:20:15;41.4;32.1;20
45112;PMS5003;30873;53.908;27.576;2022-12-20T11:24:56;43.5;33.8;20.1
45112;PMS5003;30873;53.908;27.576;2022-12-20T11:30:02;42.3;34.4;21.2
45112;PMS5003;30873;53.908;27.576;2022-12-20T11:34:36;41.4;33.2;20.4
45112;PMS5003;30873;53.908;27.576;2022-12-20T11:40:08;41;33.2;19.8
45112;PMS5003;30873;53.908;27.576;2022-12-20T11:45:07;43.9;34.8;21.1
45112;PMS5003;30873;53.908;27.576;2022-12-20T11:49:37;42.3;34.1;20.7
45112;PMS5003;30873;53.908;27.576;2022-12-20T11:54:40;42;33.2;20.6
45112;PMS5003;30873;53.908;27.576;2022-12-20T11:59:34;42.5;33.7;21
45112;PMS5003;30873;53.908;27.576;2022-12-20T12:05:13;42.2;32.8;20.6
45112;PMS5003;30873;53.908;27.576;2022-12-20T12:10:11;41.2;32.6;20.6
45112;PMS5003;30873;53.908;27.576;2022-12-20T12:14:57;42.2;33.5;20.7
45112;PMS5003;30873;53.908;27.576;2022-12-20T12:20:00;39.8;32.2;19.8
45112;PMS5003;30873;53.908;27.576;2022-12-20T12:24:23;42.1;33.2;20.5
45112;PMS5003;30873;53.908;27.576;2022-12-20T12:29:56;42.1;33.6;21.1
45112;PMS5003;30873;53.908;27.576;2022-12-20T12:35:14;39.9;32.7;20.5
45112;PMS5003;30873;53.908;27.576;2022-12-20T12:39:28;44.2;35.3;22.5
45112;PMS5003;30873;53.908;27.576;2022-12-20T12:44:54;44.5;35;21.9
45112;PMS5003;30873;53.908;27.576;2022-12-20T12:49:40;44.4;35.2;21.7
45112;PMS5003;30873;53.908;27.576;2022-12-20T12:55:29;45.2;35.9;22.1
45112;PMS5003;30873;53.908;27.576;2022-12-20T12:59:41;46.5;36.9;22.6
45112;PMS5003;30873;53.908;27.576;2022-12-20T13:04:53;46.3;36.5;23.1
45112;PMS5003;30873;53.908;27.576;2022-12-20T13:09:52;44.5;35;21.7
45112;PMS5003;30873;53.908;27.576;2022-12-20T13:14:53;43.9;35.2;22.3
45112;PMS5003;30873;53.908;27.576;2022-12-20T13:20:13;43;34.4;20.8
45112;PMS5003;30873;53.908;27.576;2022-12-20T13:24:46;45.2;35.9;21.4
45112;PMS5003;30873;53.908;27.576;2022-12-20T13:29:23;44.4;35.4;21.7
45112;PMS5003;30873;53.908;27.576;2022-12-20T13:34:52;42.5;34.6;20.4
45112;PMS5003;30873;53.908;27.576;2022-12-20T13:39:45;45;35.7;21.5
45112;PMS5003;30873;53.908;27.576;2022-12-20T13:45:04;45.2;35.2;22
45112;PMS5003;30873;53.908;27.576;2022-12-20T13:49:22;42.6;33.6;20.8
45112;PMS5003;30873;53.908;27.576;2022-12-20T13:55:07;43.6;33.9;20.9
45112;PMS5003;30873;53.908;27.576;2022-12-20T13:59:58;44.9;35.9;21.8
45112;PMS5003;30873;53.908;27.576;2022-12-20T14:04:22;45.4;35.3;22.2
45112;PMS5003;30873;53.908;27.576;2022-12-20T14:10:11;43.5;34.6;21.5
45112;PMS5003;30873;53.908;27.576;2022-12-20T14:14:52;43.1;33.9;21.6
45112;PMS5003;30873;53.908;27.576;2022-12-20T14:19:22;44;35.2;21.7
45112;PMS5003;30873;53.908;27.576;2022-12-20T14:24:22;47.4;37.4;22.9
45112;PMS5003;30873;53.908;27.576;2022-12-20T14:29:56;45.4;35.6;22.1
45112;PMS5003;30873;53.908;27.576;2022-12-20T14:35:17;47.2;37.2;22.7
45112;PMS5003;30873;53.908;27.576;2022-12-20T14:39:52;46.8;36.8;23
45112;PMS5003;30873;53.908;27.576;2022-12-20T14:45:01;45.5;36.1;22.5
45112;PMS5003;30873;53.908;27.576;2022-12-20T14:49:57;43.8;35;21.9
45112;PMS5003;30873;53.908;27.576;2022-12-20T14:54:41;46.6;36.5;22.5
45112;PMS5003;30873;53.908;27.576;2022-12-20T15:00:11;44.3;35.3;21.6
45112;PMS5003;30873;53.908;27.576;2022-12-20T15:04:52;41.7;33.5;21.2
45112;PMS5003;30873;53.908;27.576;2022-12-20T15:09:44;43.4;34.9;22
45112;PMS5003;30873;53.908;27.576;2022-12-20T15:14:44;45.2;35.9;22.4
45112;PMS5003;30873;53.908;27.576;2022-12-20T15:19:44;44.2;35.1;22.2
45112;PMS5003;30873;53.908;27.576;2022-12-20T15:25:08;39.9;32.5;21.3
45112;PMS5003;30873;53.908;27.576;2022-12-20T15:29:23;40.8;32.8;20.3
45112;PMS5003;30873;53.908;27.576;2022-12-20T15:34:54;41.6;33.8;21.3
45112;PMS5003;30873;53.908;27.576;2022-12-20T15:39:58;40.5;32.5;20.5
45112;PMS5003;30873;53.908;27.576;2022-12-20T15:44:32;41.3;33;20.7
45112;PMS5003;30873;53.908;27.576;2022-12-20T15:50:08;40.2;31.8;20.4
45112;PMS5003;30873;53.908;27.576;2022-12-20T15:54:52;41.8;33.2;20.6
45112;PMS5003;30873;53.908;27.576;2022-12-20T15:59:32;39;32.6;20.5
45112;PMS5003;30873;53.908;27.576;2022-12-20T16:04:56;40.8;33.7;21.1
45112;PMS5003;30873;53.908;27.576;2022-12-20T16:09:44;40.8;33.4;20.5
45112;PMS5003;30873;53.908;27.576;2022-12-20T16:15:10;39.1;32.8;20.6
45112;PMS5003;30873;53.908;27.576;2022-12-20T16:19:22;42.1;33.7;21
45112;PMS5003;30873;53.908;27.576;2022-12-20T16:24:42;42.8;34.5;21.5
45112;PMS5003;30873;53.908;27.576;2022-12-20T16:29:58;40.1;33.1;20.3
45112;PMS5003;30873;53.908;27.576;2022-12-20T16:34:22;43.4;33.7;21.1
45112;PMS5003;30873;53.908;27.576;2022-12-20T16:40:08;43.5;34.1;21.2
45112;PMS5003;30873;53.908;27.576;2022-12-20T16:44:54;41.4;33.1;19.9
45112;PMS5003;30873;53.908;27.576;2022-12-20T16:49:46;40.7;33.3;20.2
45112;PMS5003;30873;53.908;27.576;2022-12-20T16:54:44;44.2;33.8;20.5
45112;PMS5003;30873;53.908;27.576;2022-12-20T16:59:46;42.4;33.6;20.8
45112;PMS5003;30873;53.908;27.576;2022-12-20T17:05:16;44.9;34.1;21.2
45112;PMS5003;30873;53.908;27.576;2022-12-20T17:09:42;44.9;34.1;21.2
45112;PMS5003;30873;53.908;27.576;2022-12-20T17:14:54;41.8;33.8;20.9
45112;PMS5003;30873;53.908;27.576;2022-12-20T17:19:48;44.6;34.4;20.9
45112;PMS5003;30873;53.908;27.576;2022-12-20T17:24:32;42.2;34;20.8
45112;PMS5003;30873;53.908;27.576;2022-12-20T17:29:54;43.7;34.2;20.6
45112;PMS5003;30873;53.908;27.576;2022-12-20T17:34:54;44.5;34;20.9
45112;PMS5003;30873;53.908;27.576;2022-12-20T17:39:56;43.7;34.2;21.3
45112;PMS5003;30873;53.908;27.576;2022-12-20T17:44:44;47.4;36.3;22
45112;PMS5003;30873;53.908;27.576;2022-12-20T17:50:07;45.9;35.5;20.9
45112;PMS5003;30873;53.908;27.576;2022-12-20T17:55:08;51.1;39.9;24.3
45112;PMS5003;30873;53.908;27.576;2022-12-20T17:59:32;55.3;43.2;26.3
45112;PMS5003;30873;53.908;27.576;2022-12-20T18:04:32;56.7;43.1;26.1
45112;PMS5003;30873;53.908;27.576;2022-12-20T18:09:45;55.4;42;24.9
45112;PMS5003;30873;53.908;27.576;2022-12-20T18:15:06;49;37.3;22.8
45112;PMS5003;30873;53.908;27.576;2022-12-20T18:19:54;47.6;37;22.3
45112;PMS5003;30873;53.908;27.576;2022-12-20T18:24:54;45.1;35.1;21
45112;PMS5003;30873;53.908;27.576;2022-12-20T18:29:44;46.4;36;22.2
45112;PMS5003;30873;53.908;27.576;2022-12-20T18:34:42;45.1;34.9;21.3
45112;PMS5003;30873;53.908;27.576;2022-12-20T18:40:05;44.8;34.6;21.4
45112;PMS5003;30873;53.908;27.576;2022-12-20T18:45:04;44.1;34.3;21.2
45112;PMS5003;30873;53.908;27.576;2022-12-20T18:49:44;43.9;35.4;21.6
45112;PMS5003;30873;53.908;27.576;2022-12-20T18:54:32;45.3;35.5;21.4
45112;PMS5003;30873;53.908;27.576;2022-12-20T18:59:22;46.3;35.3;21.3
45112;PMS5003;30873;53.908;27.576;2022-12-20T19:04:23;45.3;34.9;20.6
45112;PMS5003;30873;53.908;27.576;2022-12-20T19:09:54;42.5;33.6;20.9
45112;PMS5003;30873;53.908;27.576;2022-12-20T19:14:54;42.8;34;21
45112;PMS5003;30873;53.908;27.576;2022-12-20T19:19:44;43;34.3;20.8
45112;PMS5003;30873;53.908;27.576;2022-12-20T19:24:42;43.5;34.3;20.6
45112;PMS5003;30873;53.908;27.576;2022-12-20T19:30:05;45.5;34.5;21
45112;PMS5003;30873;53.908;27.576;2022-12-20T19:35:04;43.6;34;20.3
45112;PMS5003;30873;53.908;27.576;2022-12-20T19:39:32;42.4;33.3;20.1
45112;PMS5003;30873;53.908;27.576;2022-12-20T19:44:44;44.9;34.4;20.1
45112;PMS5003;30873;53.908;27.576;2022-12-20T19:49:22;42.8;33.6;20
45112;PMS5003;30873;53.908;27.576;2022-12-20T19:54:44;40;32.2;19.9
45112;PMS5003;30873;53.908;27.576;2022-12-20T19:59:53;43.6;33.2;19.5
45112;PMS5003;30873;53.908;27.576;2022-12-20T20:05:06;42.8;33.7;20
45112;PMS5003;30873;53.908;27.576;2022-12-20T20:09:54;45.1;34.5;20.1
45112;PMS5003;30873;53.908;27.576;2022-12-20T20:14:43;44;33.7;20.2
45112;PMS5003;30873;53.908;27.576;2022-12-20T20:20:04;43.2;33.3;19.9
45112;PMS5003;30873;53.908;27.576;2022-12-20T20:25:06;43.3;34.6;20.3
45112;PMS5003;30873;53.908;27.576;2022-12-20T20:29:22;43.2;33.9;20.3
45112;PMS5003;30873;53.908;27.576;2022-12-20T20:34:46;41.4;32.3;19.3
45112;PMS5003;30873;53.908;27.576;2022-12-20T20:39:42;42;33;19.5
45112;PMS5003;30873;53.908;27.576;2022-12-20T20:44:44;40.9;32.9;18.9
45112;PMS5003;30873;53.908;27.576;2022-12-20T20:49:54;42.2;32.1;18.7
45112;PMS5003;30873;53.908;27.576;2022-12-20T20:55:07;41.3;32.5;19.1
45112;PMS5003;30873;53.908;27.576;2022-12-20T20:59:48;42.4;33.3;18.9
45112;PMS5003;30873;53.908;27.576;2022-12-20T21:04:32;40;32.7;19.4
45112;PMS5003;30873;53.908;27.576;2022-12-20T21:10:04;39.6;32.5;19.1
45112;PMS5003;30873;53.908;27.576;2022-12-20T21:14:56;40.3;32;19.1
45112;PMS5003;30873;53.908;27.576;2022-12-20T21:19:22;39.7;32.9;18.8
45112;PMS5003;30873;53.908;27.576;2022-12-20T21:24:44;39.3;31.5;19
45112;PMS5003;30873;53.908;27.576;2022-12-20T21:29:46;39.4;31.9;19
45112;PMS5003;30873;53.908;27.576;2022-12-20T21:34:44;40.9;32.2;18.5
45112;PMS5003;30873;53.908;27.576;2022-12-20T21:40:05;40.7;32.7;19.3
45112;PMS5003;30873;53.908;27.576;2022-12-20T21:45:05;41.4;32.8;18.6
45112;PMS5003;30873;53.908;27.576;2022-12-20T21:49:42;42.6;32.8;18.8
45112;PMS5003;30873;53.908;27.576;2022-12-20T21:54:22;42.7;33.4;19.4
45112;PMS5003;30873;53.908;27.576;2022-12-20T21:59:52;42.5;32.9;19.4
45112;PMS5003;30873;53.908;27.576;2022-12-20T22:04:38;44.1;33.9;19.3
45112;PMS5003;30873;53.908;27.576;2022-12-20T22:09:30;44.7;33.3;18.9
45112;PMS5003;30873;53.908;27.576;2022-12-20T22:14:42;43.7;33.2;19.4
45112;PMS5003;30873;53.908;27.576;2022-12-20T22:19:38;44.7;33.7;19.7
45112;PMS5003;30873;53.908;27.576;2022-12-20T22:24:22;43.2;34.1;19.1
45112;PMS5003;30873;53.908;27.576;2022-12-20T22:30:05;45.3;34.3;19.8
45112;PMS5003;30873;53.908;27.576;2022-12-20T22:35:05;43.4;33.4;19.9
45112;PMS5003;30873;53.908;27.576;2022-12-20T22:39:30;41.7;33.1;19.2
45112;PMS5003;30873;53.908;27.576;2022-12-20T22:44:28;42.5;32.6;19.5
45112;PMS5003;30873;53.908;27.576;2022-12-20T22:49:32;44.9;34.6;19.8
45112;PMS5003;30873;53.908;27.576;2022-12-20T22:54:54;45.4;33.8;19.5
45112;PMS5003;30873;53.908;27.576;2022-12-20T22:59:28;44.9;33.9;19.2
45112;PMS5003;30873;53.908;27.576;2022-12-20T23:04:22;43.1;32.6;19.3
45112;PMS5003;30873;53.908;27.576;2022-12-20T23:09:44;44.1;33.7;19.9
45112;PMS5003;30873;53.908;27.576;2022-12-20T23:14:30;44.5;33.5;19.2
45112;PMS5003;30873;53.908;27.576;2022-12-20T23:20:07;43.9;33.4;19.8
45112;PMS5003;30873;53.908;27.576;2022-12-20T23:25:03;46.3;34.2;20
45112;PMS5003;30873;53.908;27.576;2022-12-20T23:29:32;45.3;34.3;20.2
45112;PMS5003;30873;53.908;27.576;2022-12-20T23:34:22;44.9;34.1;19.3
45112;PMS5003;30873;53.908;27.576;2022-12-20T23:39:52;42.4;32.6;19.3
45112;PMS5003;30873;53.908;27.576;2022-12-20T23:44:52;41.8;32.9;19.3
45112;PMS5003;30873;53.908;27.576;2022-12-20T23:49:22;43;32.8;19.3
45112;PMS5003;30873;53.908;27.576;2022-12-20T23:54:42;44.8;34.2;19.6
45112;PMS5003;30873;53.908;27.576;2022-12-20T23:59:54;47.1;35.3;20.5
